createdAt,value
2018-04-24T00:00:08.210Z,1031.01
2018-04-24T00:01:08.203Z,1030.99
2018-04-24T00:02:08.195Z,1031.03
2018-04-24T00:03:08.188Z,1031.03
2018-04-24T00:04:08.180Z,1031.05
2018-04-24T00:05:08.171Z,1031.05
2018-04-24T00:06:08.164Z,1031.04
2018-04-24T00:07:08.156Z,1031.04
2018-04-24T00:08:08.152Z,1031
2018-04-24T00:09:08.140Z,1031
2018-04-24T00:10:08.134Z,1030.97
2018-04-24T00:11:08.125Z,1031
2018-04-24T00:12:08.118Z,1031.01
2018-04-24T00:13:08.110Z,1031.02
2018-04-24T00:14:08.103Z,1030.95
2018-04-24T00:15:08.095Z,1031.02
2018-04-24T00:16:08.089Z,1030.97
2018-04-24T00:17:08.079Z,1031
2018-04-24T00:18:08.075Z,1030.99
2018-04-24T00:19:08.065Z,1030.94
2018-04-24T00:20:08.057Z,1030.94
2018-04-24T00:21:08.051Z,1030.91
2018-04-24T00:22:08.047Z,1030.92
2018-04-24T00:23:08.032Z,1030.98
2018-04-24T00:24:08.032Z,1030.98
2018-04-24T00:25:08.018Z,1030.94
2018-04-24T00:26:08.096Z,1030.93
2018-04-24T00:27:08.002Z,1030.94
2018-04-24T00:28:07.995Z,1030.9
2018-04-24T00:29:07.985Z,1030.89
2018-04-24T00:30:07.979Z,1030.84
2018-04-24T00:31:07.969Z,1030.81
2018-04-24T00:32:07.962Z,1030.76
2018-04-24T00:33:07.955Z,1030.71
2018-04-24T00:34:07.947Z,1030.67
2018-04-24T00:35:07.940Z,1030.66
2018-04-24T00:36:07.932Z,1030.68
2018-04-24T00:37:07.924Z,1030.68
2018-04-24T00:38:07.915Z,1030.69
2018-04-24T00:39:07.909Z,1030.69
2018-04-24T00:40:07.902Z,1030.72
2018-04-24T00:41:07.893Z,1030.72
2018-04-24T00:42:07.885Z,1030.76
2018-04-24T00:43:07.878Z,1030.85
2018-04-24T00:44:07.871Z,1030.85
2018-04-24T00:45:07.861Z,1030.89
2018-04-24T00:46:07.854Z,1030.94
2018-04-24T00:47:07.846Z,1030.95
2018-04-24T00:48:07.839Z,1030.95
2018-04-24T00:49:07.831Z,1030.96
2018-04-24T00:50:07.822Z,1031
2018-04-24T00:51:07.815Z,1031.08
2018-04-24T00:52:07.808Z,1031.06
2018-04-24T00:53:07.799Z,1031.09
2018-04-24T00:54:07.793Z,1031.11
2018-04-24T00:55:07.785Z,1031.14
2018-04-24T00:56:07.776Z,1031.16
2018-04-24T00:57:07.771Z,1031.22
2018-04-24T00:58:07.768Z,1031.23
2018-04-24T00:59:07.754Z,1031.2
2018-04-24T01:00:07.745Z,1031.28
2018-04-24T01:01:07.737Z,1031.28
2018-04-24T01:02:07.731Z,1031.29
2018-04-24T01:03:07.726Z,1031.3
2018-04-24T01:04:07.728Z,1031.28
2018-04-24T01:05:07.707Z,1031.28
2018-04-24T01:06:07.698Z,1031.29
2018-04-24T01:07:07.692Z,1031.33
2018-04-24T01:08:07.682Z,1031.34
2018-04-24T01:09:07.675Z,1031.37
2018-04-24T01:10:07.667Z,1031.36
2018-04-24T01:11:07.659Z,1031.37
2018-04-24T01:12:07.653Z,1031.38
2018-04-24T01:13:07.644Z,1031.38
2018-04-24T01:14:07.636Z,1031.42
2018-04-24T01:15:07.627Z,1031.44
2018-04-24T01:16:07.621Z,1031.45
2018-04-24T01:17:07.612Z,1031.45
2018-04-24T01:18:07.605Z,1031.48
2018-04-24T01:19:07.595Z,1031.44
2018-04-24T01:20:07.589Z,1031.43
2018-04-24T01:21:07.581Z,1031.51
2018-04-24T01:22:07.572Z,1031.52
2018-04-24T01:23:07.564Z,1031.49
2018-04-24T01:24:07.557Z,1031.49
2018-04-24T01:25:07.549Z,1031.49
2018-04-24T01:26:07.539Z,1031.47
2018-04-24T01:27:07.533Z,1031.5
2018-04-24T01:28:07.524Z,1031.52
2018-04-24T01:29:07.515Z,1031.54
2018-04-24T01:30:07.507Z,1031.55
2018-04-24T01:31:07.501Z,1031.56
2018-04-24T01:32:07.492Z,1031.58
2018-04-24T01:33:07.484Z,1031.58
2018-04-24T01:34:07.476Z,1031.57
2018-04-24T01:35:07.468Z,1031.64
2018-04-24T01:36:07.460Z,1031.66
2018-04-24T01:37:07.451Z,1031.69
2018-04-24T01:38:07.446Z,1031.7
2018-04-24T01:39:07.435Z,1031.67
2018-04-24T01:40:07.427Z,1031.65
2018-04-24T01:41:07.419Z,1031.7
2018-04-24T01:42:07.411Z,1031.68
2018-04-24T01:43:07.403Z,1031.74
2018-04-24T01:44:07.395Z,1031.75
2018-04-24T01:45:07.385Z,1031.75
2018-04-24T01:46:07.378Z,1031.77
2018-04-24T01:47:07.370Z,1031.74
2018-04-24T01:48:07.362Z,1031.71
2018-04-24T01:49:07.363Z,1031.72
2018-04-24T01:50:07.346Z,1031.7
2018-04-24T01:51:07.338Z,1031.68
2018-04-24T01:52:07.329Z,1031.69
2018-04-24T01:53:07.321Z,1031.7
2018-04-24T01:54:07.312Z,1031.74
2018-04-24T01:55:07.304Z,1031.69
2018-04-24T01:56:07.296Z,1031.65
2018-04-24T01:57:07.288Z,1031.64
2018-04-24T01:58:07.278Z,1031.64
2018-04-24T01:59:07.270Z,1031.64
2018-04-24T02:00:07.262Z,1031.66
2018-04-24T02:01:07.260Z,1031.67
2018-04-24T02:02:07.245Z,1031.71
2018-04-24T02:03:07.237Z,1031.72
2018-04-24T02:04:07.231Z,1031.75
2018-04-24T02:05:07.220Z,1031.75
2018-04-24T02:06:07.211Z,1031.77
2018-04-24T02:07:07.203Z,1031.78
2018-04-24T02:08:07.201Z,1031.77
2018-04-24T02:09:07.186Z,1031.81
2018-04-24T02:10:07.178Z,1031.82
2018-04-24T02:11:07.170Z,1031.86
2018-04-24T02:12:07.162Z,1031.82
2018-04-24T02:13:07.154Z,1031.87
2018-04-24T02:14:07.143Z,1031.86
2018-04-24T02:15:07.135Z,1031.88
2018-04-24T02:16:07.135Z,1031.84
2018-04-24T02:17:07.118Z,1031.87
2018-04-24T02:18:07.109Z,1031.86
2018-04-24T02:19:07.102Z,1031.82
2018-04-24T02:20:07.100Z,1031.82
2018-04-24T02:21:07.084Z,1031.77
2018-04-24T02:22:07.076Z,1031.7
2018-04-24T02:23:07.071Z,1031.68
2018-04-24T02:24:07.059Z,1031.69
2018-04-24T02:25:07.050Z,1031.71
2018-04-24T02:26:07.043Z,1031.71
2018-04-24T02:27:07.034Z,1031.74
2018-04-24T02:28:07.025Z,1031.78
2018-04-24T02:29:07.016Z,1031.77
2018-04-24T02:30:07.009Z,1031.74
2018-04-24T02:31:07.004Z,1031.79
2018-04-24T02:32:06.991Z,1031.8
2018-04-24T02:33:06.990Z,1031.81
2018-04-24T02:34:06.976Z,1031.83
2018-04-24T02:35:06.966Z,1031.84
2018-04-24T02:36:06.958Z,1031.8
2018-04-24T02:37:06.950Z,1031.83
2018-04-24T02:38:06.942Z,1031.8
2018-04-24T02:39:06.932Z,1031.77
2018-04-24T02:40:06.927Z,1031.78
2018-04-24T02:41:06.922Z,1031.78
2018-04-24T02:42:06.907Z,1031.8
2018-04-24T02:43:06.899Z,1031.78
2018-04-24T02:44:06.891Z,1031.76
2018-04-24T02:45:06.883Z,1031.76
2018-04-24T02:46:06.874Z,1031.73
2018-04-24T02:47:06.866Z,1031.69
2018-04-24T02:48:06.862Z,1031.68
2018-04-24T02:49:06.849Z,1031.69
2018-04-24T02:50:06.845Z,1031.65
2018-04-24T02:51:06.833Z,1031.65
2018-04-24T02:52:06.824Z,1031.64
2018-04-24T02:53:06.816Z,1031.62
2018-04-24T02:54:06.808Z,1031.58
2018-04-24T02:55:06.800Z,1031.61
2018-04-24T02:56:06.863Z,1031.61
2018-04-24T02:57:06.783Z,1031.66
2018-04-24T02:58:06.775Z,1031.63
2018-04-24T02:59:06.767Z,1031.64
2018-04-24T03:00:06.758Z,1031.55
2018-04-24T03:01:06.749Z,1031.56
2018-04-24T03:02:06.742Z,1031.62
2018-04-24T03:03:06.734Z,1031.68
2018-04-24T03:04:06.725Z,1031.68
2018-04-24T03:05:06.716Z,1031.75
2018-04-24T03:06:06.708Z,1031.71
2018-04-24T03:07:06.700Z,1031.7
2018-04-24T03:08:06.691Z,1031.68
2018-04-24T03:09:06.689Z,1031.7
2018-04-24T03:10:06.675Z,1031.68
2018-04-24T03:11:06.673Z,1031.67
2018-04-24T03:12:06.658Z,1031.6
2018-04-24T03:13:06.650Z,1031.52
2018-04-24T03:14:06.642Z,1031.5
2018-04-24T03:15:06.633Z,1031.57
2018-04-24T03:16:06.626Z,1031.57
2018-04-24T03:17:06.625Z,1031.47
2018-04-24T03:18:06.609Z,1031.42
2018-04-24T03:19:06.601Z,1031.34
2018-04-24T03:20:06.593Z,1031.32
2018-04-24T03:21:06.585Z,1031.39
2018-04-24T03:22:06.577Z,1031.42
2018-04-24T03:23:06.569Z,1031.53
2018-04-24T03:24:06.561Z,1031.57
2018-04-24T03:25:06.554Z,1031.62
2018-04-24T03:26:06.545Z,1031.62
2018-04-24T03:27:06.536Z,1031.59
2018-04-24T03:28:06.529Z,1031.58
2018-04-24T03:29:06.521Z,1031.61
2018-04-24T03:30:06.513Z,1031.56
2018-04-24T03:31:06.505Z,1031.46
2018-04-24T03:32:06.496Z,1031.41
2018-04-24T03:33:06.488Z,1031.38
2018-04-24T03:34:06.481Z,1031.41
2018-04-24T03:35:06.471Z,1031.4
2018-04-24T03:36:06.463Z,1031.42
2018-04-24T03:37:06.455Z,1031.42
2018-04-24T03:38:06.446Z,1031.47
2018-04-24T03:39:06.438Z,1031.47
2018-04-24T03:40:06.431Z,1031.49
2018-04-24T03:41:06.422Z,1031.53
2018-04-24T03:42:06.412Z,1031.58
2018-04-24T03:43:06.406Z,1031.6
2018-04-24T03:44:06.396Z,1031.62
2018-04-24T03:45:06.388Z,1031.62
2018-04-24T03:46:06.384Z,1031.59
2018-04-24T03:47:06.372Z,1031.59
2018-04-24T03:48:06.363Z,1031.57
2018-04-24T03:49:06.355Z,1031.6
2018-04-24T03:50:06.346Z,1031.58
2018-04-24T03:51:06.338Z,1031.61
2018-04-24T03:52:06.328Z,1031.6
2018-04-24T03:53:06.321Z,1031.6
2018-04-24T03:54:06.312Z,1031.66
2018-04-24T03:55:06.303Z,1031.64
2018-04-24T03:56:06.298Z,1031.63
2018-04-24T03:57:06.286Z,1031.71
2018-04-24T03:58:06.278Z,1031.73
2018-04-24T03:59:06.273Z,1031.7
2018-04-24T04:00:06.261Z,1031.68
2018-04-24T04:01:06.258Z,1031.63
2018-04-24T04:02:06.244Z,1031.64
2018-04-24T04:03:06.234Z,1031.59
2018-04-24T04:04:06.227Z,1031.59
2018-04-24T04:05:06.218Z,1031.57
2018-04-24T04:06:06.211Z,1031.54
2018-04-24T04:07:06.201Z,1031.57
2018-04-24T04:08:06.192Z,1031.52
2018-04-24T04:09:06.185Z,1031.5
2018-04-24T04:10:06.181Z,1031.47
2018-04-24T04:11:06.167Z,1031.42
2018-04-24T04:12:06.160Z,1031.35
2018-04-24T04:13:06.151Z,1031.31
2018-04-24T04:14:06.142Z,1031.26
2018-04-24T04:15:06.133Z,1031.24
2018-04-24T04:16:06.124Z,1031.19
2018-04-24T04:17:06.116Z,1031.09
2018-04-24T04:18:06.108Z,1031.02
2018-04-24T04:19:06.100Z,1030.91
2018-04-24T04:20:06.092Z,1030.83
2018-04-24T04:21:06.083Z,1030.8
2018-04-24T04:22:06.075Z,1030.65
2018-04-24T04:23:06.068Z,1030.51
2018-04-24T04:24:06.060Z,1030.41
2018-04-24T04:25:06.052Z,1030.39
2018-04-24T04:26:06.043Z,1030.39
2018-04-24T04:27:06.035Z,1030.29
2018-04-24T04:28:06.029Z,1030.25
2018-04-24T04:29:06.020Z,1030.17
2018-04-24T04:30:06.013Z,1030.03
2018-04-24T04:31:06.005Z,1029.92
2018-04-24T04:32:05.997Z,1029.76
2018-04-24T04:33:05.990Z,1029.71
2018-04-24T04:34:05.985Z,1029.62
2018-04-24T04:35:05.982Z,1029.6
2018-04-24T04:36:05.969Z,1029.62
2018-04-24T04:37:05.962Z,1029.64
2018-04-24T04:38:05.958Z,1029.58
2018-04-24T04:39:05.948Z,1029.59
2018-04-24T04:40:05.941Z,1029.56
2018-04-24T04:41:05.935Z,1029.59
2018-04-24T04:42:05.934Z,1029.56
2018-04-24T04:43:05.921Z,1029.59
2018-04-24T04:44:05.914Z,1029.64
2018-04-24T04:45:05.908Z,1029.7
2018-04-24T04:46:05.913Z,1029.68
2018-04-24T04:47:05.895Z,1029.68
2018-04-24T04:48:05.889Z,1029.7
2018-04-24T04:49:05.883Z,1029.62
2018-04-24T04:50:05.876Z,1029.61
2018-04-24T04:51:05.869Z,1029.66
2018-04-24T04:52:05.866Z,1029.62
2018-04-24T04:53:05.858Z,1029.6
2018-04-24T04:54:05.850Z,1029.57
2018-04-24T04:55:05.846Z,1029.49
2018-04-24T04:56:05.864Z,1029.44
2018-04-24T04:57:05.838Z,1029.41
2018-04-24T04:58:05.826Z,1029.31
2018-04-24T04:59:05.821Z,1029.32
2018-04-24T05:00:05.815Z,1029.23
2018-04-24T05:01:05.808Z,1029.21
2018-04-24T05:02:05.805Z,1029.14
2018-04-24T05:03:05.797Z,1029.07
2018-04-24T05:04:05.794Z,1029.02
2018-04-24T05:05:05.784Z,1028.98
2018-04-24T05:06:05.777Z,1028.9
2018-04-24T05:07:05.772Z,1028.84
2018-04-24T05:08:05.766Z,1028.79
2018-04-24T05:09:05.761Z,1028.77
2018-04-24T05:10:05.754Z,1028.74
2018-04-24T05:11:05.750Z,1028.68
2018-04-24T05:12:05.750Z,1028.67
2018-04-24T05:13:05.736Z,1028.63
2018-04-24T05:14:05.731Z,1028.63
2018-04-24T05:15:05.727Z,1028.56
2018-04-24T05:16:05.720Z,1028.52
2018-04-24T05:17:05.722Z,1028.45
2018-04-24T05:18:05.709Z,1028.44
2018-04-24T05:19:05.704Z,1028.44
2018-04-24T05:20:05.775Z,1028.42
2018-04-24T05:21:05.695Z,1028.38
2018-04-24T05:22:05.688Z,1028.35
2018-04-24T05:23:05.688Z,1028.31
2018-04-24T05:24:05.677Z,1028.24
2018-04-24T05:25:05.672Z,1028.22
2018-04-24T05:26:05.667Z,1028.21
2018-04-24T05:27:05.661Z,1028.17
2018-04-24T05:28:05.656Z,1028.2
2018-04-24T05:29:05.703Z,1028.2
2018-04-24T05:30:05.647Z,1028.18
2018-04-24T05:31:05.644Z,1028.2
2018-04-24T05:32:05.636Z,1028.16
2018-04-24T05:33:05.632Z,1028.13
2018-04-24T05:34:05.627Z,1028.13
2018-04-24T05:35:05.622Z,1028.13
2018-04-24T05:36:05.617Z,1028.19
2018-04-24T05:37:05.614Z,1028.18
2018-04-24T05:38:05.607Z,1028.2
2018-04-24T05:39:05.615Z,1028.23
2018-04-24T05:40:05.600Z,1028.18
2018-04-24T05:41:05.592Z,1028.18
2018-04-24T05:42:05.588Z,1028.14
2018-04-24T05:43:05.583Z,1028.11
2018-04-24T05:44:05.579Z,1028.09
2018-04-24T05:45:05.574Z,1028.1
2018-04-24T05:46:05.568Z,1028.18
2018-04-24T05:47:05.563Z,1028.23
2018-04-24T05:48:05.560Z,1028.27
2018-04-24T05:49:05.554Z,1028.25
2018-04-24T05:50:05.549Z,1028.23
2018-04-24T05:51:05.615Z,1028.23
2018-04-24T05:52:05.539Z,1028.17
2018-04-24T05:53:05.549Z,1028.14
2018-04-24T05:54:05.530Z,1028.13
2018-04-24T05:55:05.525Z,1028.12
2018-04-24T05:56:05.521Z,1028.11
2018-04-24T05:57:05.517Z,1028.06
2018-04-24T05:58:05.512Z,1028.04
2018-04-24T05:59:05.507Z,1027.98
2018-04-24T06:00:05.501Z,1027.86
2018-04-24T06:01:05.497Z,1027.77
2018-04-24T06:02:05.492Z,1027.74
2018-04-24T06:03:05.507Z,1027.67
2018-04-24T06:04:05.483Z,1027.67
2018-04-24T06:05:05.483Z,1027.62
2018-04-24T06:06:05.479Z,1027.58
2018-04-24T06:07:05.469Z,1027.56
2018-04-24T06:08:05.472Z,1027.54
2018-04-24T06:09:05.470Z,1027.49
2018-04-24T06:10:05.457Z,1027.43
2018-04-24T06:11:05.453Z,1027.36
2018-04-24T06:12:05.448Z,1027.35
2018-04-24T06:13:05.456Z,1027.27
2018-04-24T06:14:05.440Z,1027.21
2018-04-24T06:15:05.455Z,1027.13
2018-04-24T06:16:05.437Z,1027.15
2018-04-24T06:17:05.429Z,1027.08
2018-04-24T06:18:05.425Z,1027.09
2018-04-24T06:19:05.420Z,1027
2018-04-24T06:20:05.418Z,1026.95
2018-04-24T06:21:05.415Z,1026.85
2018-04-24T06:22:05.410Z,1026.82
2018-04-24T06:23:05.407Z,1026.75
2018-04-24T06:24:05.405Z,1026.8
2018-04-24T06:25:05.407Z,1026.76
2018-04-24T06:26:05.397Z,1026.65
2018-04-24T06:27:05.405Z,1026.49
2018-04-24T06:28:05.390Z,1026.42
2018-04-24T06:29:05.392Z,1026.28
2018-04-24T06:30:05.385Z,1026.2
2018-04-24T06:31:05.382Z,1026.16
2018-04-24T06:32:05.379Z,1026.04
2018-04-24T06:33:05.377Z,1025.96
2018-04-24T06:34:05.375Z,1025.94
2018-04-24T06:35:05.372Z,1025.9
2018-04-24T06:36:05.491Z,1025.98
2018-04-24T06:37:05.366Z,1025.99
2018-04-24T06:38:05.364Z,1026.03
2018-04-24T06:39:05.361Z,1026.05
2018-04-24T06:40:05.360Z,1026.1
2018-04-24T06:41:05.356Z,1026.25
2018-04-24T06:42:05.356Z,1026.27
2018-04-24T06:43:05.420Z,1026.41
2018-04-24T06:44:05.349Z,1026.48
2018-04-24T06:45:05.347Z,1026.54
2018-04-24T06:46:05.345Z,1026.6
2018-04-24T06:47:05.342Z,1026.6
2018-04-24T06:48:05.348Z,1026.6
2018-04-24T06:49:05.337Z,1026.36
2018-04-24T06:50:05.336Z,1026.07
2018-04-24T06:51:05.333Z,1025.63
2018-04-24T06:52:05.331Z,1025.22
2018-04-24T06:53:05.330Z,1024.74
2018-04-24T06:54:05.327Z,1024.32
2018-04-24T06:55:05.351Z,1023.98
2018-04-24T06:56:05.328Z,1023.7
2018-04-24T06:57:05.326Z,1023.7
2018-04-24T06:58:05.323Z,1023.6
2018-04-24T06:59:05.323Z,1023.59
2018-04-24T07:00:05.324Z,1023.71
2018-04-24T07:01:05.325Z,1023.85
2018-04-24T07:02:05.324Z,1024
2018-04-24T07:03:05.326Z,1024.16
2018-04-24T07:04:05.325Z,1024.29
2018-04-24T07:05:05.326Z,1024.49
2018-04-24T07:06:05.327Z,1024.56
2018-04-24T07:07:05.328Z,1024.49
2018-04-24T07:08:05.329Z,1024.56
2018-04-24T07:09:05.329Z,1024.68
2018-04-24T07:10:05.330Z,1024.41
2018-04-24T07:11:05.332Z,1023.88
2018-04-24T07:12:05.336Z,1023.27
2018-04-24T07:13:05.341Z,1022.9
2018-04-24T07:14:05.335Z,1022.47
2018-04-24T07:15:05.338Z,1022.23
2018-04-24T07:16:05.340Z,1021.99
2018-04-24T07:17:05.341Z,1021.81
2018-04-24T07:18:05.352Z,1021.62
2018-04-24T07:19:05.349Z,1021.48
2018-04-24T07:20:05.357Z,1021.31
2018-04-24T07:21:05.360Z,1021.23
2018-04-24T07:22:05.360Z,1021.21
2018-04-24T07:23:05.367Z,1021.08
2018-04-24T07:24:05.371Z,1020.92
2018-04-24T07:25:05.377Z,1020.85
2018-04-24T07:26:05.383Z,1020.8
2018-04-24T07:27:05.413Z,1021.31
2018-04-24T07:28:05.399Z,1021.35
2018-04-24T07:29:05.401Z,1021.73
2018-04-24T07:30:05.409Z,1021.8
2018-04-24T07:31:05.416Z,1022.23
2018-04-24T07:32:05.424Z,1022.42
2018-04-24T07:33:05.430Z,1022.45
2018-04-24T07:34:05.437Z,1022.36
2018-04-24T07:35:05.443Z,1022.28
2018-04-24T07:36:05.452Z,1022.19
2018-04-24T07:37:05.458Z,1022.09
2018-04-24T07:38:05.464Z,1022.08
2018-04-24T07:39:05.472Z,1022
2018-04-24T07:40:05.479Z,1022.28
2018-04-24T07:41:05.519Z,1022.32
2018-04-24T07:42:05.515Z,1022
2018-04-24T07:43:05.500Z,1021.66
2018-04-24T07:44:05.508Z,1021.42
2018-04-24T07:45:05.515Z,1021.16
2018-04-24T07:46:05.520Z,1020.69
2018-04-24T07:47:05.548Z,1020.32
2018-04-24T07:48:05.548Z,1020.25
2018-04-24T07:49:05.561Z,1020.46
2018-04-24T07:50:05.552Z,1020.23
2018-04-24T07:51:05.576Z,1019.84
2018-04-24T07:52:05.570Z,1019.64
2018-04-24T07:53:05.579Z,1019.46
2018-04-24T07:54:05.588Z,1019.39
2018-04-24T07:55:05.600Z,1019.32
2018-04-24T07:56:05.615Z,1019.26
2018-04-24T07:57:05.619Z,1019.42
2018-04-24T07:58:05.625Z,1019.67
2018-04-24T07:59:05.638Z,1019.89
2018-04-24T08:00:05.651Z,1020.12
2018-04-24T08:01:05.654Z,1020.21
2018-04-24T08:02:05.667Z,1020.13
2018-04-24T08:03:05.674Z,1020.38
2018-04-24T08:04:05.685Z,1020.44
2018-04-24T08:05:05.714Z,1020.55
2018-04-24T08:06:05.703Z,1020.75
2018-04-24T08:07:05.713Z,1021.18
2018-04-24T08:08:05.738Z,1021.35
2018-04-24T08:09:05.731Z,1021.35
2018-04-24T08:10:05.741Z,1021.32
2018-04-24T08:11:05.749Z,1021.25
2018-04-24T08:12:05.759Z,1021.14
2018-04-24T08:13:05.771Z,1020.95
2018-04-24T08:14:05.777Z,1020.89
2018-04-24T08:15:05.786Z,1020.93
2018-04-24T08:16:05.794Z,1020.81
2018-04-24T08:17:05.802Z,1020.77
2018-04-24T08:18:05.811Z,1020.79
2018-04-24T08:19:05.819Z,1020.74
2018-04-24T08:20:05.830Z,1020.64
2018-04-24T08:21:05.837Z,1020.71
2018-04-24T08:22:05.845Z,1020.63
2018-04-24T08:23:05.855Z,1020.56
2018-04-24T08:24:05.865Z,1020.79
2018-04-24T08:25:05.873Z,1020.91
2018-04-24T08:26:05.885Z,1020.97
2018-04-24T08:27:05.888Z,1021.06
2018-04-24T08:28:05.897Z,1021.12
2018-04-24T08:29:05.905Z,1021.18
2018-04-24T08:30:05.929Z,1021.42
2018-04-24T08:31:05.923Z,1021.8
2018-04-24T08:32:05.932Z,1022.16
2018-04-24T08:33:05.940Z,1022.49
2018-04-24T08:34:05.947Z,1022.83
2018-04-24T08:35:05.952Z,1022.94
2018-04-24T08:36:05.962Z,1023.19
2018-04-24T08:37:05.968Z,1023.33
2018-04-24T08:38:05.974Z,1023.34
2018-04-24T08:39:05.980Z,1023.54
2018-04-24T08:40:06.043Z,1023.68
2018-04-24T08:41:06.005Z,1023.82
2018-04-24T08:42:06.000Z,1023.92
2018-04-24T08:43:06.006Z,1024.1
2018-04-24T08:44:06.011Z,1024.22
2018-04-24T08:45:06.268Z,1024.28
2018-04-24T08:46:06.063Z,1024.19
2018-04-24T08:47:06.035Z,1024.21
2018-04-24T08:48:06.031Z,1024.37
2018-04-24T08:49:06.039Z,1024.34
2018-04-24T08:50:06.041Z,1024.38
2018-04-24T08:51:06.045Z,1024.49
2018-04-24T08:52:06.054Z,1024.54
2018-04-24T08:53:06.056Z,1024.45
2018-04-24T08:54:06.059Z,1024.56
2018-04-24T08:55:06.062Z,1024.56
2018-04-24T08:56:06.079Z,1024.5
2018-04-24T08:57:06.068Z,1024.47
2018-04-24T08:58:06.073Z,1024.44
2018-04-24T08:59:06.076Z,1024.45
2018-04-24T09:00:06.079Z,1024.42
2018-04-24T09:01:06.083Z,1024.31
2018-04-24T09:02:06.158Z,1024.23
2018-04-24T09:03:06.090Z,1024.24
2018-04-24T09:04:06.092Z,1024.27
2018-04-24T09:05:06.096Z,1024.23
2018-04-24T09:06:06.098Z,1024.29
2018-04-24T09:07:06.106Z,1024.33
2018-04-24T09:08:06.109Z,1024.24
2018-04-24T09:09:06.113Z,1024.29
2018-04-24T09:10:06.110Z,1024.43
2018-04-24T09:11:06.117Z,1024.46
2018-04-24T09:12:06.116Z,1024.42
2018-04-24T09:13:06.118Z,1024.45
2018-04-24T09:14:06.187Z,1024.49
2018-04-24T09:15:06.124Z,1024.37
2018-04-24T09:16:06.382Z,1024.42
2018-04-24T09:17:06.130Z,1024.29
2018-04-24T09:18:06.133Z,1024.24
2018-04-24T09:19:06.145Z,1024.21
2018-04-24T09:20:06.139Z,1024.1
2018-04-24T09:21:06.151Z,1023.98
2018-04-24T09:22:06.143Z,1023.96
2018-04-24T09:23:06.146Z,1023.92
2018-04-24T09:24:06.148Z,1023.89
2018-04-24T09:25:06.155Z,1023.87
2018-04-24T09:26:06.166Z,1023.88
2018-04-24T09:27:06.177Z,1023.8
2018-04-24T09:28:06.161Z,1023.82
2018-04-24T09:29:06.163Z,1023.78
2018-04-24T09:30:06.174Z,1023.8
2018-04-24T09:31:06.170Z,1023.61
2018-04-24T09:32:06.174Z,1023.56
2018-04-24T09:33:06.182Z,1023.43
2018-04-24T09:34:06.183Z,1023.39
2018-04-24T09:35:06.183Z,1023.38
2018-04-24T09:36:06.186Z,1023.42
2018-04-24T09:37:06.191Z,1023.46
2018-04-24T09:38:06.206Z,1023.58
2018-04-24T09:39:06.270Z,1023.68
2018-04-24T09:40:06.201Z,1023.69
2018-04-24T09:41:06.205Z,1023.72
2018-04-24T09:42:06.211Z,1023.78
2018-04-24T09:43:06.233Z,1023.8
2018-04-24T09:44:06.218Z,1023.75
2018-04-24T09:45:06.220Z,1023.81
2018-04-24T09:46:06.298Z,1023.84
2018-04-24T09:47:06.241Z,1023.9
2018-04-24T09:48:06.230Z,1023.96
2018-04-24T09:49:06.240Z,1023.98
2018-04-24T09:50:06.237Z,1024
2018-04-24T09:51:06.240Z,1023.95
2018-04-24T09:52:06.244Z,1023.99
2018-04-24T09:53:06.246Z,1023.96
2018-04-24T09:54:06.249Z,1023.86
2018-04-24T09:55:06.253Z,1023.88
2018-04-24T09:56:06.258Z,1023.89
2018-04-24T09:57:06.259Z,1023.84
2018-04-24T09:58:06.262Z,1023.89
2018-04-24T09:59:06.265Z,1024
2018-04-24T10:00:06.272Z,1023.9
2018-04-24T10:01:06.276Z,1023.78
2018-04-24T10:02:06.279Z,1023.67
2018-04-24T10:03:06.282Z,1023.6
2018-04-24T10:04:06.300Z,1023.53
2018-04-24T10:05:06.286Z,1023.61
2018-04-24T10:06:06.290Z,1023.7
2018-04-24T10:07:06.324Z,1023.86
2018-04-24T10:08:06.307Z,1023.97
2018-04-24T10:09:06.305Z,1024.09
2018-04-24T10:10:06.301Z,1024.17
2018-04-24T10:11:06.310Z,1024.25
2018-04-24T10:12:06.307Z,1024.36
2018-04-24T10:13:06.391Z,1024.58
2018-04-24T10:14:06.319Z,1024.83
2018-04-24T10:15:06.316Z,1024.92
2018-04-24T10:16:06.320Z,1025.05
2018-04-24T10:17:06.325Z,1024.98
2018-04-24T10:18:06.325Z,1024.84
2018-04-24T10:19:06.327Z,1024.82
2018-04-24T10:20:06.329Z,1024.81
2018-04-24T10:21:06.338Z,1024.95
2018-04-24T10:22:06.335Z,1025.03
2018-04-24T10:23:06.345Z,1025.07
2018-04-24T10:24:06.344Z,1025.03
2018-04-24T10:25:06.374Z,1025.05
2018-04-24T10:26:06.341Z,1025
2018-04-24T10:27:06.343Z,1024.93
2018-04-24T10:28:06.349Z,1024.87
2018-04-24T10:29:06.360Z,1024.81
2018-04-24T10:30:06.349Z,1024.72
2018-04-24T10:31:06.351Z,1024.64
2018-04-24T10:32:06.359Z,1024.59
2018-04-24T10:33:06.358Z,1024.52
2018-04-24T10:34:06.357Z,1024.41
2018-04-24T10:35:06.370Z,1024.41
2018-04-24T10:36:06.361Z,1024.29
2018-04-24T10:37:06.363Z,1024.22
2018-04-24T10:38:06.365Z,1024.11
2018-04-24T10:39:06.368Z,1024.06
2018-04-24T10:40:06.374Z,1024.08
2018-04-24T10:41:06.370Z,1024.02
2018-04-24T10:42:06.372Z,1023.98
2018-04-24T10:43:06.383Z,1023.87
2018-04-24T10:44:06.380Z,1023.77
2018-04-24T10:45:06.380Z,1023.77
2018-04-24T10:46:06.387Z,1023.74
2018-04-24T10:47:06.386Z,1023.7
2018-04-24T10:48:06.432Z,1023.63
2018-04-24T10:49:06.391Z,1023.58
2018-04-24T10:50:06.397Z,1023.62
2018-04-24T10:51:06.398Z,1023.59
2018-04-24T10:52:06.400Z,1023.57
2018-04-24T10:53:06.403Z,1023.59
2018-04-24T10:54:06.415Z,1023.52
2018-04-24T10:55:06.412Z,1023.58
2018-04-24T10:56:06.417Z,1023.49
2018-04-24T10:57:06.418Z,1023.46
2018-04-24T10:58:06.420Z,1023.37
2018-04-24T10:59:06.423Z,1023.37
2018-04-24T11:00:06.426Z,1023.38
2018-04-24T11:01:06.431Z,1023.48
2018-04-24T11:02:06.434Z,1023.56
2018-04-24T11:03:06.438Z,1023.59
2018-04-24T11:04:06.441Z,1023.62
2018-04-24T11:05:06.446Z,1023.54
2018-04-24T11:06:06.448Z,1023.63
2018-04-24T11:07:06.456Z,1023.71
2018-04-24T11:08:06.471Z,1023.74
2018-04-24T11:09:06.458Z,1023.82
2018-04-24T11:10:06.463Z,1023.89
2018-04-24T11:11:06.464Z,1023.97
2018-04-24T11:12:06.469Z,1024.14
2018-04-24T11:13:06.471Z,1024.27
2018-04-24T11:14:06.475Z,1024.29
2018-04-24T11:15:06.483Z,1024.32
2018-04-24T11:16:06.481Z,1024.39
2018-04-24T11:17:06.539Z,1024.52
2018-04-24T11:18:06.486Z,1024.62
2018-04-24T11:19:06.493Z,1024.76
2018-04-24T11:20:06.492Z,1024.89
2018-04-24T11:21:06.495Z,1024.98
2018-04-24T11:22:06.497Z,1025.08
2018-04-24T11:23:06.501Z,1025.19
2018-04-24T11:24:06.503Z,1025.23
2018-04-24T11:25:06.505Z,1025.37
2018-04-24T11:26:06.508Z,1025.38
2018-04-24T11:27:06.513Z,1025.36
2018-04-24T11:28:06.512Z,1025.31
2018-04-24T11:29:06.516Z,1025.3
2018-04-24T11:30:06.516Z,1025.32
2018-04-24T11:31:06.518Z,1025.28
2018-04-24T11:32:06.522Z,1025.16
2018-04-24T11:33:06.528Z,1025.11
2018-04-24T11:34:06.534Z,1025.11
2018-04-24T11:35:06.526Z,1025.15
2018-04-24T11:36:06.542Z,1025.07
2018-04-24T11:37:06.535Z,1025.01
2018-04-24T11:38:06.530Z,1024.99
2018-04-24T11:39:06.534Z,1024.95
2018-04-24T11:40:06.546Z,1024.96
2018-04-24T11:41:06.539Z,1024.93
2018-04-24T11:42:06.537Z,1024.99
2018-04-24T11:43:06.539Z,1025.1
2018-04-24T11:44:06.609Z,1025.15
2018-04-24T11:45:06.602Z,1025.18
2018-04-24T11:46:06.550Z,1025.23
2018-04-24T11:47:06.545Z,1025.31
2018-04-24T11:48:06.560Z,1025.46
2018-04-24T11:49:06.549Z,1025.49
2018-04-24T11:50:06.550Z,1025.51
2018-04-24T11:51:06.550Z,1025.55
2018-04-24T11:52:06.562Z,1025.55
2018-04-24T11:53:06.565Z,1025.55
2018-04-24T11:54:06.553Z,1025.55
2018-04-24T11:55:06.555Z,1025.52
2018-04-24T11:56:06.556Z,1025.51
2018-04-24T11:57:06.577Z,1025.51
2018-04-24T11:58:06.565Z,1025.55
2018-04-24T11:59:06.559Z,1025.48
2018-04-24T12:00:06.562Z,1025.52
2018-04-24T12:01:06.561Z,1025.5
2018-04-24T12:02:06.573Z,1025.49
2018-04-24T12:03:06.576Z,1025.57
2018-04-24T12:04:06.569Z,1025.59
2018-04-24T12:05:06.568Z,1025.62
2018-04-24T12:06:06.592Z,1025.67
2018-04-24T12:07:06.567Z,1025.65
2018-04-24T12:08:06.585Z,1025.69